Time;durP1;ratioP1;P1;durP2;ratioP2;P2;SDS_P1;SDS_P2;PMS_P1;PMS_P2;Temp;Humidity;BMP_temperature;BMP_pressure;BME280_temperature;BME280_humidity;BME280_pressure;Samples;Min_cycle;Max_cycle;Signal;HPM_P1;HPM_P2
2022/01/09 00:00:31;;;;;;;9.07;5.75;;;4.50;99.90;;;;;;6181298;23;20017;-83
2022/01/09 00:02:57;;;;;;;9.93;6.05;;;4.50;99.90;;;;;;6181467;23;20009;-83
2022/01/09 00:05:24;;;;;;;8.68;5.85;;;4.50;99.90;;;;;;6181577;23;20404;-83
2022/01/09 00:07:49;;;;;;;9.00;3.20;;;4.50;99.90;;;;;;6182288;23;20012;-83
2022/01/09 00:10:17;;;;;;;8.73;5.93;;;4.40;99.90;;;;;;6156610;23;20068;-83
2022/01/09 00:12:43;;;;;;;8.63;5.43;;;4.50;99.90;;;;;;6158900;23;20013;-83
2022/01/09 00:15:10;;;;;;;7.22;4.45;;;4.50;99.90;;;;;;6156598;23;20558;-83
2022/01/09 00:17:36;;;;;;;7.65;4.03;;;4.50;99.90;;;;;;6180670;23;20448;-83
2022/01/09 00:20:03;;;;;;;7.60;4.60;;;4.50;99.90;;;;;;6180317;23;20025;-83
2022/01/09 00:22:40;;;;;;;5.68;3.38;;;4.50;99.90;;;;;;6181083;23;20017;-83
2022/01/09 00:25:07;;;;;;;5.43;3.25;;;4.50;99.90;;;;;;6181765;23;20015;-83
2022/01/09 00:27:32;;;;;;;5.57;3.47;;;4.60;99.90;;;;;;6156725;23;20009;-83
2022/01/09 00:29:58;;;;;;;6.43;3.97;;;4.70;99.90;;;;;;6157902;23;20066;-83
2022/01/09 00:32:24;;;;;;;6.70;4.20;;;4.70;99.90;;;;;;6157480;23;20024;-83
2022/01/09 00:34:49;;;;;;;5.90;3.53;;;4.70;99.90;;;;;;6157231;23;20013;-83
2022/01/09 00:37:15;;;;;;;6.97;4.03;;;4.70;99.90;;;;;;6157417;23;20001;-83
2022/01/09 00:39:41;;;;;;;7.40;4.43;;;4.70;99.90;;;;;;6182810;23;20021;-83
2022/01/09 00:42:06;;;;;;;7.97;4.35;;;4.70;99.90;;;;;;6181392;23;20016;-83
2022/01/09 00:44:33;;;;;;;5.93;3.58;;;4.60;99.90;;;;;;6182138;23;20079;-83
2022/01/09 00:47:00;;;;;;;7.30;4.55;;;4.70;99.90;;;;;;6181189;23;20092;-83
2022/01/09 00:49:26;;;;;;;7.40;4.50;;;4.60;99.90;;;;;;6182834;23;20013;-82
2022/01/09 00:51:52;;;;;;;7.82;4.68;;;4.60;99.90;;;;;;6184368;23;20013;-83
2022/01/09 00:54:18;;;;;;;8.25;4.75;;;4.60;99.90;;;;;;6157944;23;20024;-83
2022/01/09 00:56:43;;;;;;;7.60;4.43;;;4.60;99.90;;;;;;6159821;23;20056;-83
2022/01/09 00:59:09;;;;;;;9.82;4.97;;;4.60;99.90;;;;;;6184595;23;20071;-83
2022/01/09 01:01:35;;;;;;;6.63;3.92;;;4.60;99.90;;;;;;6184276;23;20041;-83
2022/01/09 01:04:00;;;;;;;7.85;4.88;;;4.60;99.90;;;;;;6158252;23;20013;-83
2022/01/09 01:06:26;;;;;;;8.05;4.97;;;4.60;99.90;;;;;;6184225;23;20017;-83
2022/01/09 01:08:52;;;;;;;7.75;4.63;;;4.50;99.90;;;;;;6183135;23;20100;-83
2022/01/09 01:11:17;;;;;;;9.77;4.97;;;4.50;99.90;;;;;;6183267;23;20048;-83
2022/01/09 01:13:43;;;;;;;8.02;4.55;;;4.50;99.90;;;;;;6158452;23;20028;-83
2022/01/09 01:16:08;;;;;;;7.40;4.70;;;4.50;99.90;;;;;;6159926;23;20071;-83
2022/01/09 01:18:34;;;;;;;6.10;3.95;;;4.50;99.90;;;;;;6183677;23;20024;-83
2022/01/09 01:21:01;;;;;;;6.90;4.13;;;4.50;99.90;;;;;;6159551;23;20017;-84
2022/01/09 01:23:27;;;;;;;7.53;4.72;;;4.50;99.90;;;;;;6159822;23;20344;-83
2022/01/09 01:25:53;;;;;;;6.88;4.43;;;4.50;99.90;;;;;;6159330;23;20021;-83
2022/01/09 01:28:19;;;;;;;7.82;4.88;;;4.60;99.90;;;;;;6184460;23;20048;-83
2022/01/09 01:30:45;;;;;;;7.57;4.28;;;4.60;99.90;;;;;;6159643;23;20096;-83
2022/01/09 01:33:10;;;;;;;8.13;4.60;;;4.60;99.90;;;;;;6185853;23;20412;-83
2022/01/09 01:35:36;;;;;;;8.35;4.53;;;4.60;99.90;;;;;;6185467;23;20013;-83
2022/01/09 01:38:02;;;;;;;8.90;4.70;;;4.60;99.90;;;;;;6158399;23;20066;-83
2022/01/09 01:40:28;;;;;;;8.90;4.80;;;4.60;99.90;;;;;;6158067;23;20455;-83
2022/01/09 01:42:54;;;;;;;7.03;4.07;;;4.70;99.90;;;;;;6160247;23;20092;-83
2022/01/09 01:45:19;;;;;;;8.65;4.15;;;4.70;99.90;;;;;;6159554;23;20395;-83
2022/01/09 01:47:45;;;;;;;6.10;3.72;;;4.70;99.90;;;;;;6159068;23;20043;-83
2022/01/09 01:50:13;;;;;;;8.68;4.43;;;4.70;99.90;;;;;;6159619;23;20005;-83
2022/01/09 01:52:44;;;;;;;8.43;4.80;;;4.70;99.90;;;;;;6184364;23;20405;-82
2022/01/09 01:55:12;;;;;;;7.97;4.50;;;4.70;99.90;;;;;;6183225;23;20081;-83
2022/01/09 01:57:39;;;;;;;7.97;3.88;;;4.70;99.90;;;;;;6160196;23;20017;-83
2022/01/09 02:00:09;;;;;;;6.97;2.67;;;4.80;99.90;;;;;;6184996;23;20013;-83
2022/01/09 02:02:35;;;;;;;6.57;2.80;;;4.90;99.90;;;;;;6158159;23;20408;-83
2022/01/09 02:05:05;;;;;;;7.40;2.28;;;5.10;99.90;;;;;;6184117;23;20048;-83
2022/01/09 02:07:30;;;;;;;8.00;1.98;;;5.20;99.90;;;;;;6184594;23;20028;-83
2022/01/09 02:09:56;;;;;;;11.10;3.33;;;5.30;99.90;;;;;;6183122;23;20009;-83
2022/01/09 02:12:22;;;;;;;10.35;2.10;;;5.40;99.90;;;;;;6158686;23;20107;-83
2022/01/09 02:14:48;;;;;;;5.32;0.95;;;5.40;99.90;;;;;;6184747;23;20017;-83
2022/01/09 02:17:18;;;;;;;6.60;1.08;;;5.50;99.90;;;;;;6183779;23;20049;-83
2022/01/09 02:19:55;;;;;;;8.85;0.98;;;5.40;99.90;;;;;;6184704;23;20013;-83
2022/01/09 02:22:23;;;;;;;13.18;1.00;;;5.50;99.90;;;;;;6183242;23;20100;-83
2022/01/09 02:24:50;;;;;;;5.07;1.08;;;5.50;99.90;;;;;;6158283;23;20047;-83
2022/01/09 02:27:16;;;;;;;8.45;1.23;;;5.50;99.90;;;;;;6182005;23;20506;-83
2022/01/09 02:29:46;;;;;;;5.20;1.17;;;5.50;99.90;;;;;;6184452;23;20067;-82
2022/01/09 02:32:11;;;;;;;9.38;1.00;;;5.60;99.90;;;;;;6183535;23;20455;-83
2022/01/09 02:34:37;;;;;;;7.80;0.80;;;5.50;99.90;;;;;;6183168;23;20020;-82
2022/01/09 02:37:03;;;;;;;9.30;1.20;;;5.60;99.90;;;;;;6181857;23;20114;-82
2022/01/09 02:39:28;;;;;;;9.40;1.45;;;5.70;99.90;;;;;;6157529;23;20017;-83
2022/01/09 02:41:54;;;;;;;9.77;1.25;;;5.70;99.90;;;;;;6183534;23;20089;-83
2022/01/09 02:44:20;;;;;;;10.38;1.25;;;5.70;99.90;;;;;;6183674;23;20608;-83
2022/01/09 02:47:02;;;;;;;10.77;1.40;;;5.70;99.90;;;;;;6182998;23;20013;-82
2022/01/09 02:49:28;;;;;;;10.68;1.65;;;5.70;99.90;;;;;;6184174;23;20013;-83
2022/01/09 02:51:54;;;;;;;13.63;2.10;;;5.70;99.90;;;;;;6158841;23;20012;-82
2022/01/09 02:57:04;;;;;;;13.43;1.75;;;5.70;99.90;;;;;;6182953;23;20024;-82
2022/01/09 02:59:30;;;;;;;19.13;2.35;;;5.70;99.90;;;;;;6158372;23;20088;-83
2022/01/09 03:01:55;;;;;;;27.33;4.35;;;5.80;99.90;;;;;;6184014;23;20021;-82
2022/01/09 03:04:21;;;;;;;32.53;4.95;;;5.80;99.90;;;;;;6182957;23;20017;-83
2022/01/09 03:06:47;;;;;;;28.17;4.53;;;5.90;99.90;;;;;;6184151;23;20598;-82
2022/01/09 03:09:12;;;;;;;21.25;3.63;;;5.90;99.90;;;;;;6158280;23;20049;-81
2022/01/09 03:11:39;;;;;;;22.55;3.15;;;5.90;99.90;;;;;;6184210;23;20096;-83
2022/01/09 03:14:07;;;;;;;28.38;3.30;;;5.90;99.90;;;;;;6184234;23;20062;-82
2022/01/09 03:16:34;;;;;;;25.95;2.92;;;5.90;99.90;;;;;;6182319;23;20052;-83
2022/01/09 03:18:59;;;;;;;31.42;4.60;;;6.00;99.90;;;;;;6159197;23;20409;-82
2022/01/09 03:21:25;;;;;;;27.77;3.25;;;6.00;99.90;;;;;;6182416;23;20040;-83
2022/01/09 03:23:50;;;;;;;26.15;2.95;;;6.00;99.90;;;;;;6156837;23;20021;-82
2022/01/09 03:26:16;;;;;;;30.00;4.30;;;6.10;99.90;;;;;;6158032;23;20013;-83
2022/01/09 03:28:42;;;;;;;20.83;3.50;;;6.10;99.90;;;;;;6184401;23;20005;-83
2022/01/09 03:31:07;;;;;;;27.33;3.78;;;6.10;99.90;;;;;;6157871;23;20051;-80
2022/01/09 03:33:33;;;;;;;22.15;3.60;;;6.10;99.90;;;;;;6156957;23;20127;-81
2022/01/09 03:35:59;;;;;;;30.55;5.22;;;6.20;99.90;;;;;;6156014;23;20012;-82
2022/01/09 03:38:24;;;;;;;24.73;4.13;;;6.10;99.90;;;;;;6155441;23;20455;-82
2022/01/09 03:40:50;;;;;;;19.63;2.10;;;6.10;99.90;;;;;;6156632;23;20049;-82
2022/01/09 03:43:17;;;;;;;21.27;2.78;;;6.10;99.90;;;;;;6158101;23;20013;-82
2022/01/09 03:45:43;;;;;;;21.65;3.47;;;6.10;99.90;;;;;;6156790;23;20463;-82
2022/01/09 03:48:09;;;;;;;26.58;3.55;;;6.10;99.90;;;;;;6157273;23;20009;-82
2022/01/09 03:50:35;;;;;;;22.08;2.40;;;6.10;99.90;;;;;;6181478;23;20024;-82
2022/01/09 03:53:00;;;;;;;22.92;2.95;;;6.10;99.90;;;;;;6181672;23;20068;-82
2022/01/09 03:55:26;;;;;;;19.08;1.85;;;6.20;99.90;;;;;;6180792;23;20013;-83
2022/01/09 03:57:52;;;;;;;17.52;2.33;;;6.10;99.90;;;;;;6182641;23;20013;-82
2022/01/09 04:00:20;;;;;;;12.07;2.40;;;6.10;99.90;;;;;;6156018;23;20024;-82
2022/01/09 04:02:48;;;;;;;20.63;2.30;;;6.10;99.90;;;;;;6181861;23;20096;-82
2022/01/09 04:05:14;;;;;;;15.23;1.50;;;6.10;99.90;;;;;;6181875;23;20013;-83
2022/01/09 04:07:40;;;;;;;18.05;1.73;;;6.10;99.90;;;;;;6157476;23;20478;-82
2022/01/09 04:10:06;;;;;;;20.70;2.78;;;6.10;99.90;;;;;;6156233;23;20159;-82
2022/01/09 04:12:46;;;;;;;12.75;1.65;;;6.10;99.90;;;;;;6157277;23;20020;-82
2022/01/09 04:15:13;;;;;;;22.70;3.72;;;6.10;99.90;;;;;;6182061;23;20056;-82
2022/01/09 04:20:33;;;;;;;14.65;2.05;;;6.10;99.90;;;;;;6175447;23;20021;-83
2022/01/09 04:23:00;;;;;;;15.20;3.45;;;6.10;99.90;;;;;;6181515;23;20013;-82
2022/01/09 04:25:26;;;;;;;18.75;2.55;;;6.10;99.90;;;;;;6158555;23;20013;-82
2022/01/09 04:27:52;;;;;;;18.33;2.20;;;6.10;99.90;;;;;;6183247;23;20085;-82
2022/01/09 04:30:19;;;;;;;14.77;1.95;;;6.10;99.90;;;;;;6184300;23;20009;-83
2022/01/09 04:32:45;;;;;;;22.58;2.53;;;6.10;99.90;;;;;;6159973;23;20016;-82
2022/01/09 04:35:12;;;;;;;18.90;2.42;;;6.10;99.90;;;;;;6183892;23;20320;-82
2022/01/09 04:37:38;;;;;;;19.98;2.47;;;6.10;99.90;;;;;;6158660;23;20017;-83
2022/01/09 04:40:08;;;;;;;13.02;1.83;;;6.00;99.90;;;;;;6158397;23;20032;-82
2022/01/09 04:42:46;;;;;;;14.20;1.85;;;6.10;99.90;;;;;;6183233;23;20060;-83
2022/01/09 04:45:15;;;;;;;14.32;1.60;;;6.10;99.90;;;;;;6184779;23;20009;-83
2022/01/09 04:47:43;;;;;;;10.25;1.50;;;6.10;99.90;;;;;;6158528;23;20028;-83
2022/01/09 04:50:13;;;;;;;18.92;2.28;;;6.00;99.90;;;;;;6158657;23;20009;-83
2022/01/09 04:52:40;;;;;;;14.82;1.98;;;6.00;99.90;;;;;;6183578;23;20017;-83
2022/01/09 04:55:06;;;;;;;13.75;1.48;;;6.00;99.90;;;;;;6158041;23;20463;-82
2022/01/09 04:57:32;;;;;;;10.75;1.30;;;5.90;99.90;;;;;;6184548;23;20013;-82
2022/01/09 04:59:58;;;;;;;16.20;1.83;;;5.90;99.90;;;;;;6158959;23;20044;-82
2022/01/09 05:02:23;;;;;;;14.30;1.67;;;5.90;99.90;;;;;;6159318;23;20112;-82
2022/01/09 05:04:49;;;;;;;17.85;2.33;;;5.90;99.90;;;;;;6182661;23;20040;-83
2022/01/09 05:07:15;;;;;;;13.98;2.05;;;5.90;99.90;;;;;;6184504;23;20512;-83
2022/01/09 05:09:40;;;;;;;12.00;2.50;;;5.90;99.90;;;;;;6182699;23;20017;-83
2022/01/09 05:12:06;;;;;;;11.73;2.13;;;5.90;99.90;;;;;;6183136;23;20009;-82
2022/01/09 05:14:32;;;;;;;12.93;2.13;;;5.80;99.90;;;;;;6183776;23;20013;-83
2022/01/09 05:16:58;;;;;;;8.23;0.98;;;5.80;99.90;;;;;;6184086;23;20320;-82
2022/01/09 05:19:28;;;;;;;6.72;1.10;;;5.80;99.90;;;;;;6159189;23;20068;-83
2022/01/09 05:21:55;;;;;;;13.82;1.73;;;5.80;99.90;;;;;;6182654;23;20059;-82
2022/01/09 05:24:21;;;;;;;8.32;1.13;;;5.70;99.90;;;;;;6182630;23;20013;-82
2022/01/09 05:26:47;;;;;;;10.75;1.83;;;5.70;99.90;;;;;;6182856;23;20020;-83
2022/01/09 05:29:13;;;;;;;9.48;1.23;;;5.70;99.90;;;;;;6157477;23;20020;-82
2022/01/09 05:31:39;;;;;;;10.07;1.25;;;5.80;99.90;;;;;;6157464;23;20009;-83
2022/01/09 05:34:05;;;;;;;9.73;1.58;;;5.80;99.90;;;;;;6158380;23;20045;-83
2022/01/09 05:36:31;;;;;;;12.82;1.38;;;5.80;99.90;;;;;;6182843;23;20028;-82
2022/01/09 05:38:57;;;;;;;11.68;1.15;;;5.70;99.90;;;;;;6157818;23;20021;-83
2022/01/09 05:41:23;;;;;;;7.07;0.85;;;5.80;99.90;;;;;;6156265;23;20056;-83
2022/01/09 05:43:49;;;;;;;8.38;1.23;;;5.80;99.90;;;;;;6159009;23;20013;-85
2022/01/09 05:46:14;;;;;;;9.00;0.80;;;5.70;99.90;;;;;;6183573;23;20012;-83
2022/01/09 05:48:40;;;;;;;11.15;1.58;;;5.70;99.90;;;;;;6158612;23;20108;-83
2022/01/09 05:51:06;;;;;;;8.10;0.77;;;5.70;99.90;;;;;;6183396;23;20371;-82
2022/01/09 05:53:31;;;;;;;9.63;1.60;;;5.60;99.90;;;;;;6182221;23;20021;-83
2022/01/09 05:55:57;;;;;;;7.93;1.50;;;5.60;99.90;;;;;;6182549;23;20045;-82
2022/01/09 05:58:23;;;;;;;5.50;0.80;;;5.60;99.90;;;;;;6183127;23;20021;-82
2022/01/09 06:00:48;;;;;;;10.10;1.20;;;5.60;99.90;;;;;;6158131;23;20391;-83
2022/01/09 06:03:14;;;;;;;12.13;1.88;;;5.60;99.90;;;;;;6159394;23;20023;-83
2022/01/09 06:05:40;;;;;;;9.50;0.70;;;5.50;99.90;;;;;;6163577;23;20097;-82
2022/01/09 06:08:05;;;;;;;6.95;0.80;;;5.50;99.90;;;;;;6187734;23;20324;-82
2022/01/09 06:10:31;;;;;;;4.72;0.57;;;5.50;99.90;;;;;;6187134;23;20040;-83
2022/01/09 06:12:57;;;;;;;6.65;0.50;;;5.40;99.90;;;;;;6187866;23;20356;-83
2022/01/09 06:15:22;;;;;;;10.07;1.75;;;5.30;99.90;;;;;;6188702;23;20169;-82
2022/01/09 06:17:48;;;;;;;5.65;0.68;;;5.30;99.90;;;;;;6163069;23;20012;-83
2022/01/09 06:20:15;;;;;;;6.32;0.70;;;5.30;99.90;;;;;;6189405;23;20302;-82
2022/01/09 06:22:42;;;;;;;8.43;1.30;;;5.30;99.90;;;;;;6187664;23;20067;-83
2022/01/09 06:25:08;;;;;;;5.47;0.80;;;5.30;99.90;;;;;;6187625;23;20071;-83
2022/01/09 06:27:34;;;;;;;9.93;1.15;;;5.30;99.90;;;;;;6138749;23;20012;-83
2022/01/09 06:30:00;;;;;;;4.78;0.75;;;5.30;99.90;;;;;;6162690;23;20058;-82
2022/01/09 06:32:25;;;;;;;13.50;1.25;;;5.30;99.90;;;;;;6164128;23;20469;-83
2022/01/09 06:34:51;;;;;;;6.50;0.63;;;5.40;99.90;;;;;;6189510;23;20436;-83
2022/01/09 06:37:16;;;;;;;8.23;0.93;;;5.40;99.90;;;;;;6187847;23;20925;-83
2022/01/09 06:39:43;;;;;;;9.65;0.88;;;5.50;99.90;;;;;;6164072;23;20017;-83
2022/01/09 06:42:10;;;;;;;5.22;0.88;;;5.50;99.90;;;;;;6163319;23;20032;-82
2022/01/09 06:44:36;;;;;;;11.77;0.93;;;5.50;99.90;;;;;;6187495;23;20097;-83
2022/01/09 06:47:02;;;;;;;7.28;0.73;;;5.50;99.90;;;;;;6187237;23;20070;-82
2022/01/09 06:49:28;;;;;;;8.52;1.10;;;5.40;99.90;;;;;;6163369;23;20473;-83
2022/01/09 06:51:54;;;;;;;11.25;1.95;;;5.30;99.90;;;;;;6187739;23;20012;-81
2022/01/09 06:54:20;;;;;;;12.57;1.17;;;5.30;99.90;;;;;;6187733;23;20018;-83
2022/01/09 06:56:45;;;;;;;5.63;0.88;;;5.20;99.90;;;;;;6187631;23;20017;-83
2022/01/09 06:59:11;;;;;;;8.45;1.17;;;5.10;99.90;;;;;;6164065;23;20095;-83
2022/01/09 07:01:36;;;;;;;7.72;1.02;;;5.10;99.90;;;;;;6186562;23;20347;-83
2022/01/09 07:04:02;;;;;;;4.88;0.60;;;5.00;99.90;;;;;;6155018;23;20017;-82
2022/01/09 07:06:29;;;;;;;9.57;0.93;;;5.00;99.90;;;;;;6154414;23;20017;-83
2022/01/09 07:08:54;;;;;;;9.38;0.73;;;5.10;99.90;;;;;;6180221;23;20012;-83
2022/01/09 07:11:20;;;;;;;11.48;1.20;;;5.20;99.90;;;;;;6180291;23;20407;-83
2022/01/09 07:13:46;;;;;;;7.80;0.90;;;5.20;99.90;;;;;;6180339;23;20020;-82
2022/01/09 07:16:11;;;;;;;6.65;1.30;;;5.20;99.90;;;;;;6180251;23;20127;-82
2022/01/09 07:18:37;;;;;;;11.38;1.40;;;5.10;99.90;;;;;;6156057;23;20013;-82
2022/01/09 07:21:03;;;;;;;8.00;0.90;;;5.10;99.90;;;;;;6154424;23;20028;-82
2022/01/09 07:23:30;;;;;;;8.82;0.98;;;5.10;99.90;;;;;;6154130;23;20451;-82
2022/01/09 07:25:55;;;;;;;10.07;1.23;;;5.10;99.90;;;;;;6153902;23;20087;-82
2022/01/09 07:28:21;;;;;;;4.28;0.50;;;5.00;99.90;;;;;;6154496;23;20447;-82
2022/01/09 07:30:47;;;;;;;4.10;0.65;;;5.10;99.90;;;;;;6179850;23;20008;-83
2022/01/09 07:33:12;;;;;;;6.97;0.52;;;5.10;99.90;;;;;;6179125;23;20076;-82
2022/01/09 07:35:38;;;;;;;8.98;0.85;;;5.10;99.90;;;;;;6155002;23;20041;-83
2022/01/09 07:38:04;;;;;;;7.70;0.70;;;5.00;99.90;;;;;;6178763;23;20027;-82
2022/01/09 07:40:29;;;;;;;9.07;0.77;;;5.00;99.90;;;;;;6154252;23;20289;-82
2022/01/09 07:42:55;;;;;;;7.47;0.68;;;5.00;99.90;;;;;;6155069;23;20352;-81
2022/01/09 07:45:24;;;;;;;5.20;0.70;;;5.00;99.90;;;;;;6179252;23;20438;-82
2022/01/09 07:47:50;;;;;;;5.85;0.60;;;5.00;99.90;;;;;;6180060;23;20016;-82
2022/01/09 07:50:17;;;;;;;6.55;0.65;;;5.00;99.90;;;;;;6155221;23;20095;-83
2022/01/09 07:52:42;;;;;;;5.05;0.73;;;5.00;99.90;;;;;;6179149;23;20016;-83
2022/01/09 07:55:09;;;;;;;6.78;0.82;;;5.00;99.90;;;;;;6179414;23;20005;-82
2022/01/09 07:57:35;;;;;;;5.30;0.60;;;5.00;99.90;;;;;;6154616;23;20439;-83
2022/01/09 08:00:03;;;;;;;4.57;0.60;;;5.00;99.90;;;;;;6180097;23;20092;-82
2022/01/09 08:02:29;;;;;;;7.18;0.68;;;4.90;99.90;;;;;;6180093;23;20013;-83
2022/01/09 08:04:55;;;;;;;6.07;0.60;;;4.90;99.90;;;;;;6153978;23;20116;-82
2022/01/09 08:07:21;;;;;;;7.70;0.73;;;4.90;99.90;;;;;;6153650;23;20057;-82
2022/01/09 08:09:47;;;;;;;3.42;0.63;;;4.90;99.90;;;;;;6179663;23;20036;-82
2022/01/09 08:12:14;;;;;;;8.88;1.27;;;5.00;99.90;;;;;;6179244;23;20083;-82
2022/01/09 08:14:41;;;;;;;14.50;1.55;;;5.00;99.90;;;;;;6178711;23;20020;-82
2022/01/09 08:17:07;;;;;;;4.45;0.50;;;4.90;99.90;;;;;;6154753;23;20032;-82
2022/01/09 08:19:35;;;;;;;6.70;0.68;;;4.90;99.90;;;;;;6155053;23;20512;-81
2022/01/09 08:22:01;;;;;;;7.57;1.00;;;4.90;99.90;;;;;;6178766;23;20116;-82
2022/01/09 08:24:27;;;;;;;8.07;0.80;;;4.80;99.90;;;;;;6178872;23;20432;-82
2022/01/09 08:26:53;;;;;;;7.97;0.80;;;4.80;99.90;;;;;;6179259;23;20028;-83
2022/01/09 08:29:18;;;;;;;9.85;0.80;;;4.80;99.90;;;;;;6155162;23;20009;-82
2022/01/09 08:31:45;;;;;;;7.72;1.10;;;4.70;99.90;;;;;;6154677;23;20017;-82
2022/01/09 08:34:10;;;;;;;6.10;0.88;;;4.80;99.90;;;;;;6154195;23;20013;-82
2022/01/09 08:36:37;;;;;;;13.73;1.90;;;4.80;99.90;;;;;;6177973;23;20107;-82
2022/01/09 08:39:03;;;;;;;18.38;1.48;;;4.80;99.90;;;;;;6153875;23;20494;-82
2022/01/09 08:41:29;;;;;;;10.45;1.50;;;4.80;99.90;;;;;;6154495;23;20498;-82
2022/01/09 08:43:55;;;;;;;10.35;1.98;;;4.90;99.90;;;;;;6178586;23;20017;-82
2022/01/09 08:46:20;;;;;;;13.13;1.35;;;4.90;99.90;;;;;;6179639;23;20386;-81
2022/01/09 08:48:46;;;;;;;10.80;1.48;;;4.90;99.90;;;;;;6180336;23;20423;-81
2022/01/09 08:51:12;;;;;;;10.35;1.02;;;4.90;99.90;;;;;;6154775;23;20017;-82
2022/01/09 08:53:38;;;;;;;8.95;1.30;;;4.80;99.90;;;;;;6152643;23;20024;-82
2022/01/09 08:56:06;;;;;;;10.95;1.45;;;4.80;99.90;;;;;;6177895;23;20052;-82
2022/01/09 08:58:32;;;;;;;12.15;1.27;;;4.80;99.90;;;;;;6180386;23;20017;-82
2022/01/09 09:00:58;;;;;;;11.30;1.35;;;4.80;99.90;;;;;;6154091;23;20013;-82
2022/01/09 09:03:24;;;;;;;10.23;1.35;;;4.70;99.90;;;;;;6182707;23;20025;-82
2022/01/09 09:05:50;;;;;;;10.43;1.48;;;4.70;99.90;;;;;;6183886;23;20478;-82
2022/01/09 09:08:16;;;;;;;9.40;1.10;;;4.70;99.90;;;;;;6184123;23;20019;-82
2022/01/09 09:10:42;;;;;;;7.03;1.45;;;4.70;99.90;;;;;;6184510;23;20009;-82
2022/01/09 09:13:07;;;;;;;6.05;1.70;;;4.70;99.90;;;;;;6186081;23;20473;-82
2022/01/09 09:15:33;;;;;;;14.77;2.15;;;4.70;99.90;;;;;;6161722;23;20127;-82
2022/01/09 09:18:00;;;;;;;14.27;1.52;;;4.70;99.90;;;;;;6161378;23;20347;-81
2022/01/09 09:20:26;;;;;;;8.05;1.00;;;4.70;99.90;;;;;;6162547;23;20020;-82
2022/01/09 09:22:51;;;;;;;9.40;1.27;;;4.70;99.90;;;;;;6160561;23;20032;-83
2022/01/09 09:25:17;;;;;;;9.73;1.13;;;4.70;99.90;;;;;;6185322;23;20369;-82
2022/01/09 09:27:43;;;;;;;10.85;1.38;;;4.70;99.90;;;;;;6160925;23;20012;-82
2022/01/09 09:30:10;;;;;;;7.15;1.08;;;4.80;99.90;;;;;;6160853;23;20494;-82
2022/01/09 09:32:37;;;;;;;10.20;1.08;;;4.80;99.90;;;;;;6162297;23;20090;-82
2022/01/09 09:35:04;;;;;;;11.85;1.23;;;4.80;99.90;;;;;;6187141;23;20008;-83
2022/01/09 09:37:31;;;;;;;12.10;1.45;;;4.80;99.90;;;;;;6185391;23;20016;-82
2022/01/09 09:39:57;;;;;;;13.55;1.15;;;4.80;99.90;;;;;;6162007;23;20004;-83
2022/01/09 09:42:23;;;;;;;9.55;1.33;;;4.90;99.90;;;;;;6185561;23;20094;-83
2022/01/09 09:44:48;;;;;;;7.88;1.38;;;5.00;99.90;;;;;;6184262;23;20019;-82
2022/01/09 09:47:18;;;;;;;13.77;1.30;;;5.00;99.90;;;;;;6185697;23;20020;-83
2022/01/09 09:49:45;;;;;;;11.23;1.17;;;5.10;99.90;;;;;;6185685;23;20095;-82
2022/01/09 09:52:15;;;;;;;9.88;1.30;;;5.10;99.90;;;;;;6184539;23;20091;-83
2022/01/09 09:54:41;;;;;;;12.57;1.17;;;5.10;99.90;;;;;;6183432;23;20272;-82
2022/01/09 09:57:07;;;;;;;4.97;0.90;;;5.20;99.90;;;;;;6159271;23;20423;-82
2022/01/09 09:59:37;;;;;;;13.35;1.48;;;5.20;99.90;;;;;;6185704;23;20336;-82
2022/01/09 10:02:23;;;;;;;9.18;1.40;;;5.20;99.90;;;;;;6185952;23;20455;-82
2022/01/09 10:05:01;;;;;;;10.75;1.38;;;5.30;99.90;;;;;;6153988;23;20017;-81
2022/01/09 10:07:28;;;;;;;8.82;1.60;;;5.40;99.90;;;;;;6156021;23;20021;-83
2022/01/09 10:09:56;;;;;;;7.93;1.50;;;5.50;99.90;;;;;;6153088;23;20017;-83
2022/01/09 10:12:27;;;;;;;11.63;1.40;;;5.50;99.90;;;;;;6131589;23;20019;-83
2022/01/09 10:15:03;;;;;;;11.25;1.15;;;5.50;99.90;;;;;;6153336;23;20017;-82
2022/01/09 10:17:28;;;;;;;14.00;1.80;;;5.60;99.90;;;;;;6131230;23;20017;-82
2022/01/09 10:20:03;;;;;;;9.63;1.30;;;5.60;99.90;;;;;;6155832;23;20067;-82
2022/01/09 10:22:50;;;;;;;10.10;1.30;;;5.60;99.90;;;;;;6155207;23;20328;-82
2022/01/09 10:25:27;;;;;;;9.27;1.00;;;5.80;99.90;;;;;;6130145;23;20040;-82
2022/01/09 10:28:08;;;;;;;8.57;1.20;;;5.80;99.90;;;;;;6155904;23;20041;-82
2022/01/09 10:30:41;;;;;;;13.50;1.17;;;5.90;99.90;;;;;;6131373;23;20013;-83
2022/01/09 10:33:13;;;;;;;6.93;1.35;;;6.00;99.90;;;;;;6130064;23;20017;-83
2022/01/09 10:35:41;;;;;;;12.35;1.40;;;6.10;99.90;;;;;;6129497;23;20028;-82
2022/01/09 10:38:13;;;;;;;13.45;1.27;;;6.20;99.90;;;;;;6154949;23;20013;-82
2022/01/09 10:40:41;;;;;;;7.05;1.27;;;6.30;99.90;;;;;;6154970;23;20044;-82
2022/01/09 10:43:13;;;;;;;7.03;1.25;;;6.30;99.90;;;;;;6155362;23;20136;-82
2022/01/09 10:45:41;;;;;;;;;;;6.40;99.90;;;;;;6155113;23;20009;-82
2022/01/09 10:48:13;;;;;;;14.57;1.38;;;6.30;99.90;;;;;;6180744;23;19912;-82
2022/01/09 10:50:42;;;;;;;8.07;0.80;;;6.30;99.90;;;;;;6155788;23;20056;-82
2022/01/09 10:53:21;;;;;;;10.18;1.23;;;6.10;99.90;;;;;;6154635;23;20009;-82
2022/01/09 10:56:00;;;;;;;10.73;1.40;;;6.00;99.90;;;;;;6155470;23;20427;-82
2022/01/09 10:58:27;;;;;;;14.30;1.58;;;5.90;99.90;;;;;;6155371;23;20062;-83
2022/01/09 11:01:15;;;;;;;7.38;1.00;;;6.20;99.90;;;;;;6157005;23;20032;-83
2022/01/09 11:03:44;;;;;;;10.15;1.33;;;6.70;99.90;;;;;;6164068;23;20016;-83
2022/01/09 11:06:10;;;;;;;12.00;1.35;;;7.10;99.90;;;;;;6211187;23;20039;-83
2022/01/09 11:08:37;;;;;;;15.10;1.45;;;7.20;99.90;;;;;;6185625;23;20035;-83
2022/01/09 11:11:10;;;;;;;10.27;1.40;;;7.10;99.90;;;;;;6187634;23;20012;-82
2022/01/09 11:13:41;;;;;;;6.63;1.08;;;7.10;99.90;;;;;;6139751;23;20021;-83
2022/01/09 11:18:53;;;;;;;6.72;0.70;;;7.20;99.90;;;;;;6187405;23;20096;-82
2022/01/09 11:21:19;;;;;;;7.47;1.08;;;7.30;99.90;;;;;;6187251;23;20020;-82
2022/01/09 11:24:12;;;;;;;5.40;0.88;;;7.30;99.90;;;;;;6161472;23;20017;-82
2022/01/09 11:26:46;;;;;;;9.57;1.63;;;7.30;99.90;;;;;;6161768;23;20001;-82
2022/01/09 11:29:15;;;;;;;10.63;1.35;;;7.20;99.90;;;;;;6184912;23;20036;-82
2022/01/09 11:31:54;;;;;;;11.32;1.30;;;7.20;99.90;;;;;;6162419;23;20012;-83
2022/01/09 11:34:33;;;;;;;10.57;1.63;;;7.30;99.90;;;;;;6185891;23;20386;-83
2022/01/09 11:37:29;;;;;;;9.05;1.67;;;7.80;99.90;;;;;;6185665;23;20350;-82
2022/01/09 11:39:57;;;;;;;8.40;0.98;;;8.20;99.90;;;;;;6185388;23;20013;-83
2022/01/09 11:42:22;;;;;;;8.52;0.85;;;8.60;99.90;;;;;;6161648;23;20015;-83
2022/01/09 11:44:51;;;;;;;8.52;1.10;;;8.90;99.90;;;;;;6184918;23;20303;-83
2022/01/09 11:47:17;;;;;;;12.18;1.88;;;9.10;99.90;;;;;;6184675;23;20397;-83
2022/01/09 11:49:49;;;;;;;8.32;1.23;;;9.40;99.90;;;;;;6185686;23;20009;-83
2022/01/09 11:52:15;;;;;;;10.23;1.30;;;9.40;99.90;;;;;;6184396;23;20031;-83
2022/01/09 11:54:48;;;;;;;10.27;1.27;;;9.10;99.90;;;;;;6182327;23;20009;-82
2022/01/09 11:57:20;;;;;;;8.40;1.10;;;9.00;99.90;;;;;;6159404;23;20031;-83
2022/01/09 11:59:51;;;;;;;10.13;1.00;;;9.10;99.90;;;;;;6184972;23;20013;-83
2022/01/09 12:02:16;;;;;;;9.85;1.27;;;9.00;99.90;;;;;;6184841;23;20027;-83
2022/01/09 12:04:48;;;;;;;7.70;1.27;;;9.30;99.90;;;;;;6212042;23;20056;-83
2022/01/09 12:07:40;;;;;;;8.50;0.90;;;9.60;99.90;;;;;;6160368;23;20091;-84
2022/01/09 12:10:25;;;;;;;9.40;1.17;;;10.10;99.90;;;;;;6183815;23;20355;-83
2022/01/09 12:12:50;;;;;;;7.85;1.40;;;10.50;99.90;;;;;;6157789;23;20016;-83
2022/01/09 12:15:32;;;;;;;9.57;1.10;;;10.70;99.90;;;;;;6159990;23;20022;-83
2022/01/09 12:18:00;;;;;;;9.70;1.03;;;10.70;98.10;;;;;;6159125;23;20284;-83
2022/01/09 12:20:28;;;;;;;7.07;1.17;;;10.90;99.90;;;;;;6183755;23;20790;-83
2022/01/09 12:23:01;;;;;;;8.18;1.13;;;10.70;99.90;;;;;;6157884;23;20008;-83
2022/01/09 12:25:33;;;;;;;9.38;0.98;;;10.20;99.90;;;;;;6182922;23;20008;-84
2022/01/09 12:28:23;;;;;;;7.30;0.88;;;9.60;99.90;;;;;;6157337;23;20012;-83
2022/01/09 12:31:22;;;;;;;11.23;1.00;;;9.60;99.90;;;;;;6185195;23;20012;-83
2022/01/09 12:33:49;;;;;;;8.70;1.25;;;9.60;99.90;;;;;;6159359;23;20095;-83
2022/01/09 12:36:18;;;;;;;8.02;1.33;;;9.70;99.90;;;;;;6160447;23;20433;-83
2022/01/09 12:38:54;;;;;;;8.40;1.20;;;9.90;99.90;;;;;;6185455;23;20028;-83
2022/01/09 12:41:22;;;;;;;8.40;1.30;;;9.80;99.90;;;;;;6186068;23;20059;-83
2022/01/09 12:43:49;;;;;;;5.57;1.25;;;9.60;99.90;;;;;;6184454;23;20016;-83
2022/01/09 12:46:21;;;;;;;13.07;1.50;;;9.70;99.90;;;;;;6187908;23;20526;-83
2022/01/09 12:49:15;;;;;;;10.10;1.20;;;10.00;99.90;;;;;;6187755;23;20087;-83
2022/01/09 12:51:50;;;;;;;6.45;1.38;;;10.00;99.90;;;;;;6162744;23;20435;-83
2022/01/09 12:54:16;;;;;;;7.72;1.13;;;9.80;99.90;;;;;;6162225;23;20390;-83
2022/01/09 12:56:42;;;;;;;5.75;1.13;;;9.60;99.90;;;;;;6187390;23;20016;-83
2022/01/09 12:59:12;;;;;;;11.32;1.33;;;9.50;99.90;;;;;;6185742;23;20017;-83
2022/01/09 13:01:41;;;;;;;13.30;1.23;;;9.40;99.90;;;;;;6187385;23;20016;-84
2022/01/09 13:04:18;;;;;;;8.73;1.30;;;9.30;99.90;;;;;;6181797;23;20068;-84